Time;durP1;ratioP1;P1;durP2;ratioP2;P2;SDS_P1;SDS_P2;PMS_P1;PMS_P2;Temp;Humidity;BMP_temperature;BMP_pressure;BME280_temperature;BME280_humidity;BME280_pressure;Samples;Min_cycle;Max_cycle;Signal;HPM_P1;HPM_P2
2022/03/14 00:00:50;;;;;;;269.20;128.20;;;-1.30;1.00;;;;;;5042238;28;20049;-78
2022/03/14 00:03:19;;;;;;;242.13;118.93;;;-1.40;1.00;;;;;;5040899;28;20426;-78
2022/03/14 00:05:49;;;;;;;248.75;126.57;;;-1.50;1.00;;;;;;5058422;28;20041;-76
2022/03/14 00:08:16;;;;;;;277.27;135.75;;;-1.40;1.00;;;;;;5059183;28;20385;-77
2022/03/14 00:10:46;;;;;;;290.85;138.02;;;-1.40;1.00;;;;;;5057354;28;20139;-76
2022/03/14 00:13:19;;;;;;;304.48;144.45;;;-1.50;1.00;;;;;;5041075;28;20056;-78
2022/03/14 00:15:47;;;;;;;279.67;134.40;;;-1.50;1.00;;;;;;5040543;28;20496;-79
2022/03/14 00:18:17;;;;;;;256.38;120.53;;;-1.50;1.00;;;;;;5041045;28;20136;-79
2022/03/14 00:20:48;;;;;;;242.63;119.40;;;-1.50;1.00;;;;;;5052780;28;20459;-79
2022/03/14 00:23:19;;;;;;;241.98;120.00;;;-1.60;1.00;;;;;;5020485;28;20107;-79
2022/03/14 00:25:49;;;;;;;247.75;117.95;;;-1.60;1.00;;;;;;5035678;28;20056;-80
2022/03/14 00:28:17;;;;;;;242.45;115.75;;;-1.60;1.00;;;;;;5039468;28;20057;-78
2022/03/14 00:30:45;;;;;;;236.52;116.75;;;-1.70;1.00;;;;;;5056301;28;20142;-78
2022/03/14 00:33:13;;;;;;;249.27;119.97;;;-1.70;1.00;;;;;;5060485;28;20128;-78
2022/03/14 00:35:41;;;;;;;247.02;119.80;;;-1.70;1.00;;;;;;5042078;28;20042;-78
2022/03/14 00:38:09;;;;;;;233.23;116.30;;;-1.70;1.00;;;;;;5019572;28;20132;-79
2022/03/14 00:40:39;;;;;;;244.98;116.53;;;-1.70;1.00;;;;;;5032483;28;20507;-78
2022/03/14 00:43:07;;;;;;;272.52;125.72;;;-1.70;1.00;;;;;;5057212;28;20393;-77
2022/03/14 00:45:35;;;;;;;306.77;132.43;;;-1.70;1.00;;;;;;5057037;28;20404;-78
2022/03/14 00:48:02;;;;;;;324.05;138.25;;;-1.80;1.00;;;;;;5057755;28;20110;-78
2022/03/14 00:50:30;;;;;;;281.45;123.85;;;-1.80;1.00;;;;;;5056902;28;20579;-77
2022/03/14 00:52:58;;;;;;;291.58;126.05;;;-1.80;1.00;;;;;;5057945;28;20513;-78
2022/03/14 00:55:26;;;;;;;267.83;121.40;;;-1.80;1.00;;;;;;5047373;28;20053;-79
2022/03/14 00:57:55;;;;;;;258.73;116.35;;;-2.00;1.00;;;;;;5058385;28;20049;-77
2022/03/14 01:00:23;;;;;;;236.27;109.63;;;-2.00;1.00;;;;;;5057913;28;20557;-78
2022/03/14 01:02:51;;;;;;;229.73;103.60;;;-2.00;7.00;;;;;;5057482;28;20068;-78
2022/03/14 01:05:19;;;;;;;231.80;106.60;;;-2.00;8.50;;;;;;5045434;28;20091;-78
2022/03/14 01:07:47;;;;;;;254.23;116.32;;;-1.90;5.30;;;;;;5058206;28;20128;-79
2022/03/14 01:10:15;;;;;;;228.65;104.47;;;-2.00;3.30;;;;;;5058859;28;20454;-78
2022/03/14 01:12:43;;;;;;;206.43;98.43;;;-2.00;8.50;;;;;;5056331;28;20049;-77
2022/03/14 01:15:12;;;;;;;205.20;98.28;;;-2.00;8.10;;;;;;5056730;28;20523;-78
2022/03/14 01:17:40;;;;;;;201.23;95.38;;;-2.00;8.70;;;;;;5059542;28;20053;-78
2022/03/14 01:20:10;;;;;;;198.35;95.10;;;-2.00;5.20;;;;;;5057258;28;20048;-79
2022/03/14 01:22:38;;;;;;;213.45;100.40;;;-2.00;5.80;;;;;;5057368;28;20045;-78
2022/03/14 01:25:07;;;;;;;209.43;98.65;;;-2.00;4.60;;;;;;5055806;28;20068;-78
2022/03/14 01:27:35;;;;;;;208.45;100.30;;;-2.00;4.20;;;;;;5042272;28;20416;-77
2022/03/14 01:30:03;;;;;;;212.05;101.72;;;-2.00;4.70;;;;;;5039365;28;20531;-78
2022/03/14 01:32:32;;;;;;;215.50;106.10;;;-2.20;11.20;;;;;;5057951;28;20106;-79
2022/03/14 01:34:59;;;;;;;212.98;101.78;;;-2.20;15.10;;;;;;5040277;28;20049;-77
2022/03/14 01:37:27;;;;;;;194.82;91.97;;;-2.20;16.90;;;;;;5057399;28;20056;-77
2022/03/14 01:39:56;;;;;;;155.88;75.20;;;-2.30;27.00;;;;;;5052406;28;20395;-76
2022/03/14 01:42:24;;;;;;;98.82;50.25;;;-2.20;28.70;;;;;;5038985;28;20503;-78
2022/03/14 01:44:52;;;;;;;126.05;59.08;;;-2.20;22.40;;;;;;5056333;28;20151;-77
2022/03/14 01:47:19;;;;;;;143.18;69.45;;;-2.30;16.70;;;;;;5019136;28;20511;-78
2022/03/14 01:49:50;;;;;;;148.52;75.10;;;-2.20;18.80;;;;;;5019459;28;20049;-78
2022/03/14 01:52:18;;;;;;;148.57;74.95;;;-2.20;17.70;;;;;;5018799;28;20080;-79
2022/03/14 01:54:45;;;;;;;143.38;75.80;;;-2.30;11.90;;;;;;5052584;28;20052;-78
2022/03/14 01:57:15;;;;;;;153.68;83.40;;;-2.30;13.60;;;;;;5055060;28;20045;-78
2022/03/14 01:59:43;;;;;;;173.30;92.50;;;-2.40;19.20;;;;;;5055594;28;20094;-78
2022/03/14 02:02:17;;;;;;;183.63;97.50;;;-2.50;25.80;;;;;;5053727;28;20044;-77
2022/03/14 02:04:49;;;;;;;182.48;100.90;;;-2.50;32.30;;;;;;5039895;28;20579;-78
2022/03/14 02:07:18;;;;;;;176.18;98.30;;;-2.50;35.80;;;;;;5058442;28;20393;-79
2022/03/14 02:09:46;;;;;;;163.40;90.75;;;-2.60;48.30;;;;;;5056524;28;20408;-79
2022/03/14 02:12:15;;;;;;;171.80;93.78;;;-2.70;60.70;;;;;;5055291;28;20463;-79
2022/03/14 02:14:43;;;;;;;160.32;89.38;;;-2.70;81.90;;;;;;5039485;28;20508;-78
2022/03/14 02:17:13;;;;;;;150.05;81.78;;;-2.80;93.20;;;;;;5055582;28;20504;-79
2022/03/14 02:19:41;;;;;;;161.65;84.88;;;-2.80;99.90;;;;;;5055973;28;20045;-78
2022/03/14 02:22:13;;;;;;;145.50;80.20;;;-2.90;99.90;;;;;;5056192;28;20476;-79
2022/03/14 02:24:42;;;;;;;149.02;80.90;;;-2.90;99.90;;;;;;5053685;28;20114;-77
2022/03/14 02:27:11;;;;;;;138.30;75.93;;;-2.90;99.90;;;;;;5036770;28;20063;-78
2022/03/14 02:29:39;;;;;;;149.27;81.07;;;-2.90;99.90;;;;;;5037868;28;20048;-78
2022/03/14 02:32:11;;;;;;;142.32;78.47;;;-2.80;99.90;;;;;;5054290;28;20028;-77
2022/03/14 02:34:38;;;;;;;135.95;76.13;;;-2.80;99.90;;;;;;5039717;28;20045;-77
2022/03/14 02:37:06;;;;;;;131.75;70.95;;;-2.80;99.90;;;;;;5038740;28;20053;-78
2022/03/14 02:39:38;;;;;;;131.18;68.57;;;-2.80;99.90;;;;;;5039380;28;20040;-77
2022/03/14 02:42:07;;;;;;;120.97;67.40;;;-2.90;99.90;;;;;;5061594;28;20080;-78
2022/03/14 02:44:37;;;;;;;126.72;69.50;;;-2.90;99.90;;;;;;5059615;28;20450;-79
2022/03/14 02:47:05;;;;;;;130.88;73.18;;;-2.90;99.90;;;;;;5038866;28;20070;-77
2022/03/14 02:49:34;;;;;;;126.03;70.65;;;-2.80;99.90;;;;;;5055512;28;20069;-78
2022/03/14 02:52:02;;;;;;;132.18;69.43;;;-2.80;99.90;;;;;;5056258;28;20040;-78
2022/03/14 02:54:29;;;;;;;132.10;72.03;;;-2.80;99.90;;;;;;5053122;28;20048;-78
2022/03/14 02:57:00;;;;;;;140.82;73.82;;;-2.80;99.90;;;;;;5054786;28;20055;-78
2022/03/14 02:59:28;;;;;;;133.65;71.05;;;-2.90;99.90;;;;;;5054921;28;20044;-78
2022/03/14 03:01:56;;;;;;;131.43;71.13;;;-3.00;99.90;;;;;;5054832;28;20408;-77
2022/03/14 03:04:23;;;;;;;130.38;68.20;;;-3.10;99.90;;;;;;5053556;28;20397;-77
2022/03/14 03:06:52;;;;;;;127.43;67.35;;;-3.00;99.90;;;;;;5055554;28;20102;-78
2022/03/14 03:09:20;;;;;;;129.98;72.15;;;-3.00;99.90;;;;;;5051482;28;20581;-77
2022/03/14 03:11:48;;;;;;;127.90;69.07;;;-3.00;99.90;;;;;;5056498;28;20099;-78
2022/03/14 03:14:17;;;;;;;134.70;70.90;;;-3.00;99.90;;;;;;5056459;28;20055;-77
2022/03/14 03:16:45;;;;;;;132.43;71.32;;;-2.90;99.90;;;;;;5056356;28;20522;-79
2022/03/14 03:19:14;;;;;;;137.63;71.65;;;-2.90;99.90;;;;;;5038861;28;20064;-78
2022/03/14 03:21:42;;;;;;;127.97;68.25;;;-2.90;99.90;;;;;;5037566;28;20144;-78
2022/03/14 03:24:15;;;;;;;105.57;56.75;;;-3.00;99.90;;;;;;5054725;28;20044;-77
2022/03/14 03:26:43;;;;;;;102.40;54.85;;;-2.90;99.90;;;;;;5037392;28;20044;-78
2022/03/14 03:29:11;;;;;;;108.43;59.28;;;-2.90;99.90;;;;;;5056267;28;20471;-78
2022/03/14 03:31:41;;;;;;;115.38;60.58;;;-3.00;99.90;;;;;;5037526;28;20071;-77
2022/03/14 03:34:13;;;;;;;123.53;67.43;;;-3.00;99.90;;;;;;5054771;28;20094;-77
2022/03/14 03:36:41;;;;;;;126.53;69.88;;;-3.10;99.90;;;;;;5055608;28;20069;-78
2022/03/14 03:39:08;;;;;;;130.13;70.82;;;-3.20;99.90;;;;;;5054490;28;20132;-77
2022/03/14 03:41:38;;;;;;;112.72;62.83;;;-3.10;99.90;;;;;;5053011;28;20053;-78
2022/03/14 03:44:07;;;;;;;104.60;55.35;;;-3.10;99.90;;;;;;5054840;28;20075;-78
2022/03/14 03:46:35;;;;;;;117.72;61.13;;;-3.10;99.90;;;;;;5054580;28;20041;-77
2022/03/14 03:49:04;;;;;;;115.55;63.50;;;-3.10;99.90;;;;;;5050369;28;20523;-78
2022/03/14 03:51:32;;;;;;;123.90;66.68;;;-3.10;99.90;;;;;;5053423;28;20514;-79
2022/03/14 03:54:00;;;;;;;128.07;69.72;;;-3.10;99.90;;;;;;5048403;28;20507;-78
2022/03/14 03:56:30;;;;;;;130.38;73.00;;;-3.20;99.90;;;;;;5036691;28;20131;-78
2022/03/14 03:58:57;;;;;;;130.57;71.65;;;-3.10;99.90;;;;;;5054727;28;20045;-76
2022/03/14 04:01:29;;;;;;;142.85;74.05;;;-3.20;99.90;;;;;;5054618;28;20049;-78
2022/03/14 04:03:58;;;;;;;154.98;81.75;;;-3.40;99.90;;;;;;5050359;28;20103;-77
2022/03/14 04:06:29;;;;;;;152.05;83.47;;;-3.40;99.90;;;;;;5017463;28;20580;-77
2022/03/14 04:08:57;;;;;;;159.45;85.13;;;-3.50;99.90;;;;;;5036522;28;20050;-78
2022/03/14 04:11:24;;;;;;;144.85;78.10;;;-3.40;99.90;;;;;;5055383;28;20049;-78
2022/03/14 04:13:53;;;;;;;126.55;70.55;;;-3.40;99.90;;;;;;5066392;28;20516;-77
2022/03/14 04:16:23;;;;;;;135.77;72.03;;;-3.40;99.90;;;;;;5057207;28;20048;-77
2022/03/14 04:18:53;;;;;;;135.70;72.47;;;-3.40;99.90;;;;;;5054651;28;20037;-78
2022/03/14 04:21:21;;;;;;;135.23;74.32;;;-3.40;99.90;;;;;;5056788;28;20068;-77
2022/03/14 04:23:50;;;;;;;151.32;78.28;;;-3.50;99.90;;;;;;5057602;28;20397;-77
2022/03/14 04:26:18;;;;;;;137.82;74.93;;;-3.50;99.90;;;;;;5055318;28;20515;-79
2022/03/14 04:28:45;;;;;;;138.30;74.20;;;-3.50;99.90;;;;;;5072268;28;20057;-78
2022/03/14 04:31:13;;;;;;;142.98;78.72;;;-3.50;99.90;;;;;;5039071;28;20400;-78
2022/03/14 04:33:41;;;;;;;144.80;77.63;;;-3.60;99.90;;;;;;5056948;28;20451;-78
2022/03/14 04:36:09;;;;;;;130.05;71.43;;;-3.70;99.90;;;;;;5059172;28;20427;-79
2022/03/14 04:38:37;;;;;;;119.57;67.57;;;-3.70;99.90;;;;;;5057833;28;20403;-78
2022/03/14 04:41:06;;;;;;;134.25;72.38;;;-3.70;99.90;;;;;;5057844;28;20409;-79
2022/03/14 04:43:34;;;;;;;131.82;69.97;;;-3.70;99.90;;;;;;5057004;28;20041;-78
2022/03/14 04:46:02;;;;;;;117.90;63.40;;;-3.70;99.90;;;;;;5057867;28;20530;-78
2022/03/14 04:48:30;;;;;;;122.15;63.53;;;-3.70;99.90;;;;;;5040388;28;20587;-78
2022/03/14 04:50:58;;;;;;;121.45;63.10;;;-3.70;99.90;;;;;;5060391;28;20052;-78
2022/03/14 04:53:25;;;;;;;120.18;60.63;;;-3.70;99.90;;;;;;5058818;28;20149;-78
2022/03/14 04:55:53;;;;;;;120.75;65.70;;;-3.50;99.90;;;;;;5040224;28;20044;-78
2022/03/14 04:58:22;;;;;;;133.88;65.57;;;-3.50;99.90;;;;;;5057337;28;20044;-78
2022/03/14 05:00:49;;;;;;;128.23;69.10;;;-3.60;99.90;;;;;;5036196;28;20029;-78
2022/03/14 05:03:17;;;;;;;133.05;68.10;;;-3.60;99.90;;;;;;5020170;28;20057;-78
2022/03/14 05:05:45;;;;;;;189.55;91.70;;;-3.60;99.90;;;;;;5020315;28;20080;-78
2022/03/14 05:08:13;;;;;;;153.52;77.40;;;-3.60;99.90;;;;;;5038919;28;20432;-78
2022/03/14 05:10:42;;;;;;;143.05;73.63;;;-3.50;99.90;;;;;;5039901;28;20053;-77
2022/03/14 05:13:10;;;;;;;136.63;70.15;;;-3.50;99.90;;;;;;5041931;28;20458;-78
2022/03/14 05:15:39;;;;;;;143.85;73.57;;;-3.50;99.90;;;;;;5024225;28;20432;-77
2022/03/14 05:18:07;;;;;;;145.98;76.20;;;-3.50;99.90;;;;;;5046403;28;20057;-77
2022/03/14 05:20:37;;;;;;;136.57;74.32;;;-3.50;99.90;;;;;;5039820;28;20436;-78
2022/03/14 05:23:05;;;;;;;137.93;73.07;;;-3.50;99.90;;;;;;5057080;28;20064;-78
2022/03/14 05:25:33;;;;;;;138.55;72.38;;;-3.50;99.90;;;;;;5035182;28;20067;-79
2022/03/14 05:28:03;;;;;;;127.75;68.60;;;-3.50;99.90;;;;;;5070919;22;20051;-76
2022/03/14 05:30:31;;;;;;;123.38;66.53;;;-3.50;99.90;;;;;;5094470;28;20048;-77
2022/03/14 05:33:02;;;;;;;128.30;68.72;;;-3.40;99.90;;;;;;5095232;28;20036;-76
2022/03/14 05:35:31;;;;;;;115.78;63.15;;;-3.30;99.90;;;;;;5125013;28;20040;-76
2022/03/14 05:38:00;;;;;;;110.82;59.65;;;-3.30;99.90;;;;;;5093590;28;20127;-75
2022/03/14 05:40:29;;;;;;;132.93;67.80;;;-3.20;99.90;;;;;;5058936;28;20075;-75
2022/03/14 05:42:58;;;;;;;136.55;69.28;;;-3.20;99.90;;;;;;5053322;28;20072;-76
2022/03/14 05:45:26;;;;;;;143.52;70.65;;;-3.10;99.90;;;;;;5053784;28;20045;-76
2022/03/14 05:47:54;;;;;;;151.18;73.82;;;-3.00;99.90;;;;;;5054650;28;20110;-76
2022/03/14 05:50:24;;;;;;;170.80;82.72;;;-2.90;99.90;;;;;;5056367;28;20458;-77
2022/03/14 05:52:52;;;;;;;181.20;88.55;;;-2.80;99.90;;;;;;5054360;28;20047;-76
2022/03/14 05:55:20;;;;;;;185.48;89.82;;;-2.80;99.90;;;;;;5054659;28;20053;-76
2022/03/14 05:57:48;;;;;;;194.60;95.25;;;-2.60;99.90;;;;;;5056289;28;20041;-75
2022/03/14 06:00:23;;;;;;;192.30;94.30;;;-2.60;99.90;;;;;;5072423;28;20055;-76
2022/03/14 06:02:53;;;;;;;171.93;81.90;;;-2.50;99.90;;;;;;5065830;28;20071;-75
2022/03/14 06:05:24;;;;;;;170.93;81.63;;;-2.30;99.90;;;;;;5077815;28;20103;-75
2022/03/14 06:07:52;;;;;;;156.57;80.35;;;-2.20;99.90;;;;;;5075529;28;20414;-76
2022/03/14 06:10:20;;;;;;;147.13;78.97;;;-2.10;99.90;;;;;;5075618;28;20044;-76
2022/03/14 06:12:48;;;;;;;188.25;91.80;;;-1.90;99.30;;;;;;5069056;28;20040;-77
2022/03/14 06:15:16;;;;;;;258.60;111.82;;;-1.90;85.90;;;;;;5078135;28;20048;-76
2022/03/14 06:17:45;;;;;;;237.57;108.88;;;-1.80;70.60;;;;;;5073229;28;20140;-76
2022/03/14 06:20:17;;;;;;;236.98;111.65;;;-1.60;58.20;;;;;;5061410;28;20492;-76
2022/03/14 06:22:47;;;;;;;218.02;104.32;;;-1.40;42.30;;;;;;5074117;28;20049;-77
2022/03/14 06:25:17;;;;;;;193.30;95.10;;;-1.20;24.30;;;;;;5076075;28;20055;-77
2022/03/14 06:27:46;;;;;;;187.20;95.70;;;-1.00;11.20;;;;;;5061576;28;20095;-77
2022/03/14 06:30:17;;;;;;;176.73;93.82;;;-0.80;1.00;;;;;;5074334;28;20036;-76
2022/03/14 06:32:47;;;;;;;189.60;98.00;;;-0.50;1.00;;;;;;5077421;28;20048;-76
2022/03/14 06:35:16;;;;;;;183.23;95.88;;;-0.30;1.00;;;;;;5074621;28;20135;-76
2022/03/14 06:37:45;;;;;;;186.65;95.97;;;0.00;1.00;;;;;;5083324;28;20071;-77
2022/03/14 06:40:14;;;;;;;159.65;84.05;;;0.30;1.00;;;;;;5101565;28;20036;-76
2022/03/14 06:42:48;;;;;;;155.98;83.47;;;0.70;1.00;;;;;;5095124;28;20044;-78
2022/03/14 06:45:22;;;;;;;175.20;92.73;;;0.90;1.00;;;;;;5084675;28;20071;-77
2022/03/14 06:47:51;;;;;;;179.48;93.95;;;1.20;1.00;;;;;;5074627;28;20041;-77
2022/03/14 06:50:21;;;;;;;172.57;92.35;;;1.60;1.00;;;;;;5067032;28;20075;-77
2022/03/14 06:53:12;;;;;;;157.40;85.72;;;1.90;1.00;;;;;;5058956;28;20055;-76
2022/03/14 06:55:40;;;;;;;149.50;79.63;;;2.20;1.00;;;;;;5064084;28;20084;-76
2022/03/14 06:58:07;;;;;;;144.98;75.90;;;2.40;1.00;;;;;;5060039;28;20048;-77
2022/03/14 07:00:38;;;;;;;112.55;61.22;;;2.50;1.00;;;;;;5058153;28;20071;-77
2022/03/14 07:03:06;;;;;;;109.90;59.20;;;2.80;1.00;;;;;;5075274;28;20119;-77
2022/03/14 07:05:34;;;;;;;146.40;71.72;;;3.20;1.00;;;;;;5074921;28;20391;-77
2022/03/14 07:08:02;;;;;;;154.02;76.40;;;3.30;1.00;;;;;;5075393;28;20040;-77
2022/03/14 07:10:30;;;;;;;137.38;77.10;;;3.40;1.00;;;;;;5068850;28;20041;-77
2022/03/14 07:12:58;;;;;;;146.32;81.43;;;3.60;1.00;;;;;;5075126;28;20064;-77
2022/03/14 07:15:26;;;;;;;145.68;77.68;;;3.80;1.00;;;;;;5067721;28;20056;-77
2022/03/14 07:17:55;;;;;;;134.18;74.18;;;4.00;1.00;;;;;;5054174;28;20067;-77
2022/03/14 07:20:26;;;;;;;125.68;71.57;;;4.20;1.00;;;;;;5054130;28;20402;-78
2022/03/14 07:22:55;;;;;;;118.40;68.65;;;4.40;1.00;;;;;;5088961;28;20051;-77
2022/03/14 07:25:27;;;;;;;111.88;64.53;;;4.50;1.00;;;;;;5094695;28;20043;-76
2022/03/14 07:27:55;;;;;;;118.05;61.25;;;4.80;1.00;;;;;;5065558;28;20048;-77
2022/03/14 07:30:23;;;;;;;114.88;60.58;;;5.00;1.00;;;;;;5057421;28;20041;-78
2022/03/14 07:32:51;;;;;;;128.95;63.10;;;5.40;1.00;;;;;;5079167;28;20053;-77
2022/03/14 07:35:20;;;;;;;107.20;57.40;;;5.60;1.00;;;;;;5078515;28;20048;-77
2022/03/14 07:37:48;;;;;;;107.35;57.53;;;5.70;1.00;;;;;;5058234;28;20041;-77
2022/03/14 07:40:16;;;;;;;105.88;59.08;;;5.70;1.00;;;;;;5053878;28;20052;-77
2022/03/14 07:42:46;;;;;;;103.55;57.33;;;5.80;1.00;;;;;;5056877;28;20413;-77
2022/03/14 07:45:16;;;;;;;100.90;54.03;;;5.80;1.00;;;;;;5073186;28;20094;-76
2022/03/14 07:47:44;;;;;;;91.07;53.25;;;5.80;1.00;;;;;;5058294;28;20479;-76
2022/03/14 07:50:15;;;;;;;88.30;49.15;;;5.80;1.00;;;;;;5065307;28;20398;-76
2022/03/14 07:52:43;;;;;;;83.63;46.55;;;5.90;1.00;;;;;;5057019;28;20120;-77
2022/03/14 07:55:12;;;;;;;71.32;39.95;;;6.10;1.00;;;;;;5059700;28;20045;-77
2022/03/14 07:57:44;;;;;;;74.07;40.90;;;6.30;1.00;;;;;;5076248;28;20071;-78
2022/03/14 08:00:14;;;;;;;75.47;39.33;;;6.40;1.00;;;;;;5076735;28;20067;-79
2022/03/14 08:02:47;;;;;;;77.68;41.45;;;6.50;1.00;;;;;;5091904;28;20074;-77
2022/03/14 08:05:16;;;;;;;88.75;45.80;;;6.70;1.00;;;;;;5092165;28;20049;-79
2022/03/14 08:07:44;;;;;;;83.38;44.70;;;6.80;1.00;;;;;;5076663;28;20052;-78
2022/03/14 08:10:12;;;;;;;86.78;47.20;;;6.80;1.00;;;;;;5098874;28;20051;-79
2022/03/14 08:12:49;;;;;;;90.88;46.88;;;6.90;1.00;;;;;;5099489;28;20040;-77
2022/03/14 08:15:25;;;;;;;83.70;46.83;;;7.00;1.00;;;;;;5074052;28;20053;-76
2022/03/14 08:17:53;;;;;;;84.80;46.38;;;7.10;1.00;;;;;;5096239;28;20044;-80
2022/03/14 08:20:22;;;;;;;85.88;48.10;;;7.20;1.00;;;;;;5084271;28;20125;-76
2022/03/14 08:22:53;;;;;;;74.63;39.00;;;7.30;1.00;;;;;;5073594;28;20060;-78
2022/03/14 08:25:21;;;;;;;79.22;43.33;;;7.50;1.00;;;;;;5064538;28;20079;-77
2022/03/14 08:27:51;;;;;;;87.43;45.55;;;7.60;1.00;;;;;;5057696;28;20064;-76
2022/03/14 08:30:20;;;;;;;90.85;46.47;;;7.80;1.00;;;;;;5078732;28;20072;-77
2022/03/14 08:32:47;;;;;;;78.35;44.85;;;8.00;1.00;;;;;;5065548;28;20527;-77
2022/03/14 08:35:15;;;;;;;91.88;46.67;;;8.20;1.00;;;;;;5077453;28;20123;-78
2022/03/14 08:37:45;;;;;;;81.55;41.55;;;8.40;1.00;;;;;;5077689;28;20068;-78
2022/03/14 08:40:15;;;;;;;66.95;37.47;;;8.60;1.00;;;;;;5082392;28;20120;-77
2022/03/14 08:42:43;;;;;;;63.83;34.08;;;8.70;1.00;;;;;;5086036;28;20089;-79
2022/03/14 08:45:13;;;;;;;56.58;31.48;;;8.80;1.00;;;;;;5079125;28;20040;-78
2022/03/14 08:47:41;;;;;;;55.85;28.52;;;9.00;1.00;;;;;;5085075;28;20569;-79
2022/03/14 08:50:12;;;;;;;56.75;30.50;;;9.20;1.00;;;;;;5069283;28;20100;-78
2022/03/14 08:52:41;;;;;;;54.13;29.38;;;9.40;1.00;;;;;;5081215;28;20063;-78
2022/03/14 08:55:10;;;;;;;64.90;31.05;;;9.50;1.00;;;;;;5078433;28;20077;-78
2022/03/14 08:57:37;;;;;;;61.08;32.47;;;9.50;1.00;;;;;;5081752;28;20044;-77
2022/03/14 09:00:07;;;;;;;60.70;31.05;;;9.50;1.00;;;;;;5083304;28;20051;-76
2022/03/14 09:02:36;;;;;;;49.67;28.35;;;9.60;1.00;;;;;;5094419;28;20105;-76
2022/03/14 09:05:04;;;;;;;46.50;27.92;;;9.60;1.00;;;;;;5075831;28;20525;-78
2022/03/14 09:07:32;;;;;;;74.72;38.70;;;9.70;1.00;;;;;;5070996;28;20517;-77
2022/03/14 09:10:03;;;;;;;79.03;41.50;;;9.70;1.00;;;;;;5067181;28;20049;-76
2022/03/14 09:12:33;;;;;;;90.60;42.15;;;9.90;1.00;;;;;;5056658;28;20049;-78
2022/03/14 09:15:00;;;;;;;76.35;39.78;;;9.90;1.00;;;;;;5060464;28;20036;-78
2022/03/14 09:17:29;;;;;;;62.72;38.85;;;10.00;1.00;;;;;;5061058;28;20488;-76
2022/03/14 09:19:58;;;;;;;84.07;44.10;;;10.00;1.00;;;;;;5075568;28;20040;-76
2022/03/14 09:22:25;;;;;;;80.90;43.65;;;10.00;1.00;;;;;;5076318;28;20040;-77
2022/03/14 09:24:53;;;;;;;77.95;43.53;;;10.10;1.00;;;;;;5077391;28;20040;-78
2022/03/14 09:27:21;;;;;;;78.95;43.40;;;10.10;1.00;;;;;;5082078;28;20057;-78
2022/03/14 09:29:48;;;;;;;66.70;39.45;;;10.00;1.00;;;;;;5080263;28;20094;-78
2022/03/14 09:32:16;;;;;;;67.72;37.55;;;10.20;1.00;;;;;;5062838;28;20423;-78
2022/03/14 09:34:43;;;;;;;40.08;22.10;;;10.30;1.00;;;;;;5059359;28;20053;-79
2022/03/14 09:37:12;;;;;;;34.63;19.33;;;10.50;1.00;;;;;;5063232;28;20040;-78
2022/03/14 09:39:42;;;;;;;53.08;25.23;;;10.60;1.00;;;;;;5079018;28;20033;-78
2022/03/14 09:42:12;;;;;;;50.13;30.00;;;10.80;1.00;;;;;;5066693;28;20044;-77
2022/03/14 09:44:43;;;;;;;38.42;23.40;;;10.80;1.00;;;;;;5079468;28;20060;-79
2022/03/14 09:47:12;;;;;;;43.97;27.17;;;10.80;1.00;;;;;;5084813;28;20040;-79
2022/03/14 09:49:44;;;;;;;43.40;26.40;;;10.80;1.00;;;;;;5084404;28;20103;-79
2022/03/14 09:52:15;;;;;;;47.65;28.83;;;10.80;1.00;;;;;;5077136;28;20051;-78
2022/03/14 09:54:42;;;;;;;60.13;32.63;;;10.90;1.00;;;;;;5076896;28;20040;-78
2022/03/14 09:57:10;;;;;;;52.78;32.60;;;11.10;1.00;;;;;;5075293;28;20048;-77
2022/03/14 09:59:39;;;;;;;66.82;34.25;;;11.20;1.00;;;;;;5076348;28;20049;-77
2022/03/14 10:02:08;;;;;;;69.30;35.22;;;11.30;1.00;;;;;;5075035;28;20041;-76
2022/03/14 10:04:35;;;;;;;67.32;37.90;;;11.40;1.00;;;;;;5074488;28;20423;-78
2022/03/14 10:07:03;;;;;;;51.47;29.75;;;11.50;1.00;;;;;;5074347;28;20064;-76
2022/03/14 10:09:32;;;;;;;65.22;34.38;;;11.60;1.00;;;;;;5075033;28;20048;-77
2022/03/14 10:12:00;;;;;;;50.55;29.95;;;11.70;1.00;;;;;;5074585;28;20403;-77
2022/03/14 10:14:28;;;;;;;58.25;36.65;;;11.80;1.00;;;;;;5075845;28;20040;-77
2022/03/14 10:16:56;;;;;;;58.20;35.97;;;11.70;1.00;;;;;;5074302;28;20045;-79
2022/03/14 10:19:31;;;;;;;59.45;34.47;;;11.70;1.00;;;;;;5075227;28;20508;-78
2022/03/14 10:22:14;;;;;;;54.03;32.78;;;11.80;1.00;;;;;;5074502;28;20415;-78
2022/03/14 10:24:44;;;;;;;47.30;26.50;;;11.90;1.00;;;;;;5074433;28;20045;-77
2022/03/14 10:27:13;;;;;;;46.55;29.48;;;12.00;1.00;;;;;;5075525;28;20072;-78
2022/03/14 10:29:42;;;;;;;50.47;30.25;;;12.10;1.00;;;;;;5076094;28;20044;-78
2022/03/14 10:32:23;;;;;;;47.30;30.38;;;12.10;1.00;;;;;;5091885;28;20040;-78
2022/03/14 10:34:57;;;;;;;48.30;29.98;;;12.10;1.00;;;;;;5101785;28;20040;-78
2022/03/14 10:37:27;;;;;;;49.30;30.00;;;12.00;1.00;;;;;;5095878;28;20071;-79
2022/03/14 10:40:01;;;;;;;56.97;34.83;;;12.20;1.00;;;;;;5095375;28;20048;-78
2022/03/14 10:42:37;;;;;;;52.00;30.25;;;12.40;1.00;;;;;;5086572;28;20036;-78
2022/03/14 10:45:11;;;;;;;53.55;32.38;;;12.40;1.00;;;;;;5074390;28;20398;-78
2022/03/14 10:47:43;;;;;;;48.47;29.05;;;12.60;1.00;;;;;;5068492;28;20036;-78
2022/03/14 10:50:27;;;;;;;51.00;28.63;;;12.70;1.00;;;;;;5075587;28;20056;-77
2022/03/14 10:53:09;;;;;;;31.88;21.60;;;12.70;1.00;;;;;;5091387;28;20064;-80
2022/03/14 10:55:45;;;;;;;44.15;23.00;;;12.80;1.00;;;;;;5092193;28;20048;-79
2022/03/14 10:58:14;;;;;;;28.45;17.05;;;12.80;1.00;;;;;;5091354;28;20040;-76
2022/03/14 11:00:51;;;;;;;28.80;15.27;;;12.80;1.00;;;;;;5075186;28;20119;-78
2022/03/14 11:03:24;;;;;;;20.38;12.88;;;12.80;1.00;;;;;;5074403;28;20050;-78
2022/03/14 11:05:52;;;;;;;27.50;17.13;;;12.90;1.00;;;;;;5075962;28;20043;-79
2022/03/14 11:08:31;;;;;;;30.38;18.77;;;12.90;1.00;;;;;;5075851;28;20067;-77
2022/03/14 11:11:02;;;;;;;22.98;14.02;;;12.90;1.00;;;;;;5075791;28;20155;-78
2022/03/14 11:13:29;;;;;;;22.95;14.40;;;12.90;1.00;;;;;;5074237;28;20045;-78
2022/03/14 11:15:57;;;;;;;21.77;13.38;;;12.90;1.00;;;;;;5076272;28;20067;-77
2022/03/14 11:18:25;;;;;;;28.80;16.63;;;12.90;1.00;;;;;;5075615;28;20472;-77
2022/03/14 11:20:54;;;;;;;28.95;18.63;;;13.00;1.00;;;;;;5075734;28;20044;-79
2022/03/14 11:23:25;;;;;;;36.80;21.88;;;13.10;1.00;;;;;;5074680;28;20569;-79
2022/03/14 11:25:53;;;;;;;30.08;19.25;;;13.10;1.00;;;;;;5076000;28;20105;-79
2022/03/14 11:28:24;;;;;;;30.35;19.77;;;13.20;1.00;;;;;;5093982;22;20044;-78
2022/03/14 11:30:59;;;;;;;28.10;16.65;;;13.40;1.00;;;;;;5073829;28;20047;-78
2022/03/14 11:33:27;;;;;;;20.08;13.57;;;13.40;1.00;;;;;;5072084;28;20044;-77
2022/03/14 11:35:55;;;;;;;21.40;13.43;;;13.40;1.00;;;;;;5077013;28;20036;-76
2022/03/14 11:38:24;;;;;;;20.60;14.55;;;13.20;1.00;;;;;;5094857;28;20104;-77
2022/03/14 11:40:52;;;;;;;20.38;13.95;;;13.30;1.00;;;;;;5073956;28;20062;-77
2022/03/14 11:43:21;;;;;;;23.33;15.38;;;13.30;1.00;;;;;;5083121;28;20031;-77
2022/03/14 11:45:50;;;;;;;22.02;14.25;;;13.30;1.00;;;;;;5056408;28;20048;-77
2022/03/14 11:48:19;;;;;;;22.15;14.20;;;13.40;1.00;;;;;;5074727;28;20522;-77
2022/03/14 11:50:49;;;;;;;25.73;15.05;;;13.40;1.00;;;;;;5075220;28;20056;-77
2022/03/14 11:53:21;;;;;;;23.10;13.13;;;13.40;1.00;;;;;;5074872;28;20380;-77
2022/03/14 11:55:55;;;;;;;18.33;12.95;;;13.50;1.00;;;;;;5056819;28;20044;-78
2022/03/14 11:58:33;;;;;;;19.63;13.30;;;13.60;1.00;;;;;;5074896;28;20047;-77
2022/03/14 12:01:12;;;;;;;27.98;14.50;;;13.60;1.00;;;;;;5056751;28;20040;-75
2022/03/14 12:03:43;;;;;;;24.52;13.73;;;13.70;1.00;;;;;;5074434;28;20036;-77
2022/03/14 12:06:11;;;;;;;32.30;17.75;;;13.80;1.00;;;;;;5081693;28;20136;-76
2022/03/14 12:09:00;;;;;;;27.60;16.08;;;13.80;1.00;;;;;;5056375;28;20457;-78
2022/03/14 12:11:40;;;;;;;21.65;14.25;;;13.80;1.00;;;;;;5075628;28;20066;-77
2022/03/14 12:14:13;;;;;;;23.25;14.85;;;13.80;1.00;;;;;;5074936;28;20049;-76
2022/03/14 12:16:43;;;;;;;31.23;19.15;;;13.70;1.00;;;;;;5057066;28;20055;-78
2022/03/14 12:19:33;;;;;;;26.77;19.85;;;13.80;1.00;;;;;;5074609;28;20445;-77
2022/03/14 12:22:03;;;;;;;19.25;12.82;;;13.90;1.00;;;;;;5073534;28;20044;-75
2022/03/14 12:24:45;;;;;;;20.58;14.27;;;14.00;1.00;;;;;;5066192;28;20116;-77
2022/03/14 12:27:18;;;;;;;22.58;13.82;;;14.10;1.00;;;;;;5075150;28;20067;-77
2022/03/14 12:29:48;;;;;;;27.45;13.45;;;14.10;1.00;;;;;;5037467;28;20049;-77
2022/03/14 12:32:30;;;;;;;21.90;15.30;;;14.20;1.00;;;;;;5032921;28;20052;-77
2022/03/14 12:35:05;;;;;;;24.13;14.75;;;14.20;1.00;;;;;;5054961;28;20071;-76
2022/03/14 12:37:50;;;;;;;21.95;13.52;;;14.20;1.00;;;;;;5052901;28;20052;-77
2022/03/14 12:40:43;;;;;;;28.77;16.25;;;14.20;1.00;;;;;;5053252;28;20125;-77